sensor_id;sensor_type;location;lat;lon;timestamp;P1;durP1;ratioP1;P2;durP2;ratioP2
16577;SDS011;8401;52.528;13.340;2023-09-18T00:00:45;8.82;;;7.80;;
16577;SDS011;8401;52.528;13.340;2023-09-18T00:03:17;8.98;;;8.07;;
16577;SDS011;8401;52.528;13.340;2023-09-18T00:05:47;9.57;;;8.50;;
16577;SDS011;8401;52.528;13.340;2023-09-18T00:08:15;9.40;;;8.20;;
16577;SDS011;8401;52.528;13.340;2023-09-18T00:10:42;8.70;;;7.90;;
16577;SDS011;8401;52.528;13.340;2023-09-18T00:13:12;11.00;;;8.20;;
16577;SDS011;8401;52.528;13.340;2023-09-18T00:15:38;9.43;;;8.27;;
16577;SDS011;8401;52.528;13.340;2023-09-18T00:18:06;9.57;;;8.57;;
16577;SDS011;8401;52.528;13.340;2023-09-18T00:20:31;9.27;;;8.38;;
16577;SDS011;8401;52.528;13.340;2023-09-18T00:22:57;8.27;;;7.55;;
16577;SDS011;8401;52.528;13.340;2023-09-18T00:25:22;10.30;;;7.97;;
16577;SDS011;8401;52.528;13.340;2023-09-18T00:27:48;9.23;;;8.32;;
16577;SDS011;8401;52.528;13.340;2023-09-18T00:30:14;8.98;;;8.15;;
16577;SDS011;8401;52.528;13.340;2023-09-18T00:32:40;8.93;;;8.02;;
16577;SDS011;8401;52.528;13.340;2023-09-18T00:35:06;9.40;;;7.88;;
16577;SDS011;8401;52.528;13.340;2023-09-18T00:37:31;8.50;;;7.68;;
16577;SDS011;8401;52.528;13.340;2023-09-18T00:39:57;9.55;;;8.00;;
16577;SDS011;8401;52.528;13.340;2023-09-18T00:42:23;8.75;;;7.85;;
16577;SDS011;8401;52.528;13.340;2023-09-18T00:44:49;8.05;;;7.35;;
16577;SDS011;8401;52.528;13.340;2023-09-18T00:47:15;8.48;;;7.60;;
16577;SDS011;8401;52.528;13.340;2023-09-18T00:49:42;8.63;;;7.72;;
16577;SDS011;8401;52.528;13.340;2023-09-18T00:52:12;9.35;;;8.05;;
16577;SDS011;8401;52.528;13.340;2023-09-18T00:54:38;10.48;;;8.10;;
16577;SDS011;8401;52.528;13.340;2023-09-18T00:57:07;8.85;;;7.68;;
16577;SDS011;8401;52.528;13.340;2023-09-18T00:59:35;8.23;;;7.53;;
16577;SDS011;8401;52.528;13.340;2023-09-18T01:02:03;8.43;;;7.63;;
16577;SDS011;8401;52.528;13.340;2023-09-18T01:04:29;7.88;;;7.07;;
16577;SDS011;8401;52.528;13.340;2023-09-18T01:06:55;8.38;;;7.55;;
16577;SDS011;8401;52.528;13.340;2023-09-18T01:09:23;12.75;;;8.05;;
16577;SDS011;8401;52.528;13.340;2023-09-18T01:11:59;8.30;;;7.25;;
16577;SDS011;8401;52.528;13.340;2023-09-18T01:14:39;8.23;;;7.43;;
16577;SDS011;8401;52.528;13.340;2023-09-18T01:17:22;7.90;;;7.05;;
16577;SDS011;8401;52.528;13.340;2023-09-18T01:19:47;8.93;;;7.68;;
16577;SDS011;8401;52.528;13.340;2023-09-18T01:22:17;8.52;;;7.72;;
16577;SDS011;8401;52.528;13.340;2023-09-18T01:24:44;8.32;;;7.53;;
16577;SDS011;8401;52.528;13.340;2023-09-18T01:27:13;9.63;;;7.65;;
16577;SDS011;8401;52.528;13.340;2023-09-18T01:29:40;8.43;;;7.63;;
16577;SDS011;8401;52.528;13.340;2023-09-18T01:32:06;9.02;;;7.13;;
16577;SDS011;8401;52.528;13.340;2023-09-18T01:34:35;7.90;;;7.10;;
16577;SDS011;8401;52.528;13.340;2023-09-18T01:37:04;8.75;;;7.75;;
16577;SDS011;8401;52.528;13.340;2023-09-18T01:39:32;8.57;;;7.50;;
16577;SDS011;8401;52.528;13.340;2023-09-18T01:42:03;8.82;;;7.38;;
16577;SDS011;8401;52.528;13.340;2023-09-18T01:44:34;8.88;;;7.80;;
16577;SDS011;8401;52.528;13.340;2023-09-18T01:47:02;8.45;;;7.63;;
16577;SDS011;8401;52.528;13.340;2023-09-18T01:49:32;8.50;;;7.35;;
16577;SDS011;8401;52.528;13.340;2023-09-18T01:51:59;10.82;;;7.90;;
16577;SDS011;8401;52.528;13.340;2023-09-18T01:54:25;8.52;;;7.75;;
16577;SDS011;8401;52.528;13.340;2023-09-18T01:56:51;8.48;;;7.60;;
16577;SDS011;8401;52.528;13.340;2023-09-18T01:59:18;8.32;;;7.53;;
16577;SDS011;8401;52.528;13.340;2023-09-18T02:01:44;9.68;;;7.88;;
16577;SDS011;8401;52.528;13.340;2023-09-18T02:04:10;10.00;;;7.55;;
16577;SDS011;8401;52.528;13.340;2023-09-18T02:06:36;8.57;;;7.60;;
16577;SDS011;8401;52.528;13.340;2023-09-18T02:09:02;8.50;;;7.70;;
16577;SDS011;8401;52.528;13.340;2023-09-18T02:11:28;8.10;;;7.25;;
16577;SDS011;8401;52.528;13.340;2023-09-18T02:13:54;8.27;;;7.50;;
16577;SDS011;8401;52.528;13.340;2023-09-18T02:16:21;8.10;;;7.30;;
16577;SDS011;8401;52.528;13.340;2023-09-18T02:18:47;8.65;;;7.47;;
16577;SDS011;8401;52.528;13.340;2023-09-18T02:21:19;8.32;;;7.50;;
16577;SDS011;8401;52.528;13.340;2023-09-18T02:23:45;8.50;;;7.60;;
16577;SDS011;8401;52.528;13.340;2023-09-18T02:26:13;8.40;;;7.53;;
16577;SDS011;8401;52.528;13.340;2023-09-18T02:28:39;9.50;;;7.40;;
16577;SDS011;8401;52.528;13.340;2023-09-18T02:31:05;7.85;;;7.05;;
16577;SDS011;8401;52.528;13.340;2023-09-18T02:33:30;8.30;;;7.50;;
16577;SDS011;8401;52.528;13.340;2023-09-18T02:35:56;8.30;;;7.30;;
16577;SDS011;8401;52.528;13.340;2023-09-18T02:38:22;8.43;;;7.07;;
16577;SDS011;8401;52.528;13.340;2023-09-18T02:40:48;8.95;;;7.70;;
16577;SDS011;8401;52.528;13.340;2023-09-18T02:43:13;8.00;;;7.22;;
16577;SDS011;8401;52.528;13.340;2023-09-18T02:45:39;8.80;;;8.00;;
16577;SDS011;8401;52.528;13.340;2023-09-18T02:48:05;8.35;;;7.47;;
16577;SDS011;8401;52.528;13.340;2023-09-18T02:50:31;8.48;;;7.22;;
16577;SDS011;8401;52.528;13.340;2023-09-18T02:52:56;9.48;;;8.38;;
16577;SDS011;8401;52.528;13.340;2023-09-18T02:55:22;8.68;;;7.30;;
16577;SDS011;8401;52.528;13.340;2023-09-18T02:57:48;8.00;;;7.30;;
16577;SDS011;8401;52.528;13.340;2023-09-18T03:00:13;8.45;;;7.65;;
16577;SDS011;8401;52.528;13.340;2023-09-18T03:02:39;7.97;;;7.03;;
16577;SDS011;8401;52.528;13.340;2023-09-18T03:05:05;8.95;;;7.68;;
16577;SDS011;8401;52.528;13.340;2023-09-18T03:07:31;7.80;;;7.00;;
16577;SDS011;8401;52.528;13.340;2023-09-18T03:09:56;7.93;;;7.13;;
16577;SDS011;8401;52.528;13.340;2023-09-18T03:12:22;8.52;;;7.65;;
16577;SDS011;8401;52.528;13.340;2023-09-18T03:14:48;8.90;;;7.88;;
16577;SDS011;8401;52.528;13.340;2023-09-18T03:17:13;10.50;;;7.57;;
16577;SDS011;8401;52.528;13.340;2023-09-18T03:19:39;8.70;;;7.80;;
16577;SDS011;8401;52.528;13.340;2023-09-18T03:22:05;8.30;;;7.17;;
16577;SDS011;8401;52.528;13.340;2023-09-18T03:24:30;8.30;;;7.40;;
16577;SDS011;8401;52.528;13.340;2023-09-18T03:26:56;7.75;;;7.05;;
16577;SDS011;8401;52.528;13.340;2023-09-18T03:29:22;8.10;;;7.30;;
16577;SDS011;8401;52.528;13.340;2023-09-18T03:31:47;9.27;;;7.57;;
16577;SDS011;8401;52.528;13.340;2023-09-18T03:34:13;10.27;;;7.43;;
16577;SDS011;8401;52.528;13.340;2023-09-18T03:36:38;9.67;;;8.30;;
16577;SDS011;8401;52.528;13.340;2023-09-18T03:39:04;8.60;;;7.60;;
16577;SDS011;8401;52.528;13.340;2023-09-18T03:41:30;7.57;;;6.87;;
16577;SDS011;8401;52.528;13.340;2023-09-18T03:43:59;8.03;;;7.20;;
16577;SDS011;8401;52.528;13.340;2023-09-18T03:46:25;8.40;;;7.15;;
16577;SDS011;8401;52.528;13.340;2023-09-18T03:48:51;9.90;;;7.40;;
16577;SDS011;8401;52.528;13.340;2023-09-18T03:51:17;8.50;;;7.70;;
16577;SDS011;8401;52.528;13.340;2023-09-18T03:53:44;9.50;;;7.87;;
16577;SDS011;8401;52.528;13.340;2023-09-18T03:56:10;11.15;;;7.75;;
16577;SDS011;8401;52.528;13.340;2023-09-18T03:58:35;8.10;;;7.30;;
16577;SDS011;8401;52.528;13.340;2023-09-18T04:01:01;8.50;;;7.60;;
16577;SDS011;8401;52.528;13.340;2023-09-18T04:03:27;8.10;;;7.30;;
16577;SDS011;8401;52.528;13.340;2023-09-18T04:05:52;8.57;;;7.07;;
16577;SDS011;8401;52.528;13.340;2023-09-18T04:08:18;10.23;;;8.20;;
16577;SDS011;8401;52.528;13.340;2023-09-18T04:10:43;9.93;;;7.45;;
16577;SDS011;8401;52.528;13.340;2023-09-18T04:13:10;9.07;;;7.50;;
16577;SDS011;8401;52.528;13.340;2023-09-18T04:15:36;13.45;;;8.38;;
16577;SDS011;8401;52.528;13.340;2023-09-18T04:18:03;9.03;;;7.43;;
16577;SDS011;8401;52.528;13.340;2023-09-18T04:20:30;8.57;;;7.53;;
16577;SDS011;8401;52.528;13.340;2023-09-18T04:25:45;7.95;;;7.15;;
16577;SDS011;8401;52.528;13.340;2023-09-18T04:28:11;8.53;;;7.50;;
16577;SDS011;8401;52.528;13.340;2023-09-18T04:30:38;8.30;;;7.43;;
16577;SDS011;8401;52.528;13.340;2023-09-18T04:33:03;9.00;;;7.93;;
16577;SDS011;8401;52.528;13.340;2023-09-18T04:35:29;8.47;;;7.50;;
16577;SDS011;8401;52.528;13.340;2023-09-18T04:37:56;8.77;;;7.83;;
16577;SDS011;8401;52.528;13.340;2023-09-18T04:40:23;8.80;;;7.73;;
16577;SDS011;8401;52.528;13.340;2023-09-18T04:42:49;11.70;;;7.90;;
16577;SDS011;8401;52.528;13.340;2023-09-18T04:45:15;9.13;;;7.72;;
16577;SDS011;8401;52.528;13.340;2023-09-18T04:47:41;10.00;;;8.10;;
16577;SDS011;8401;52.528;13.340;2023-09-18T04:50:07;9.07;;;8.13;;
16577;SDS011;8401;52.528;13.340;2023-09-18T04:52:33;8.37;;;7.53;;
16577;SDS011;8401;52.528;13.340;2023-09-18T04:54:59;8.80;;;7.90;;
16577;SDS011;8401;52.528;13.340;2023-09-18T04:57:24;9.23;;;7.13;;
16577;SDS011;8401;52.528;13.340;2023-09-18T04:59:50;10.80;;;7.70;;
16577;SDS011;8401;52.528;13.340;2023-09-18T05:02:16;9.23;;;8.23;;
16577;SDS011;8401;52.528;13.340;2023-09-18T05:04:42;11.80;;;7.70;;
16577;SDS011;8401;52.528;13.340;2023-09-18T05:07:07;8.70;;;7.80;;
16577;SDS011;8401;52.528;13.340;2023-09-18T05:09:33;11.73;;;8.10;;
16577;SDS011;8401;52.528;13.340;2023-09-18T05:12:04;8.37;;;7.57;;
16577;SDS011;8401;52.528;13.340;2023-09-18T05:14:33;8.37;;;6.93;;
16577;SDS011;8401;52.528;13.340;2023-09-18T05:16:59;9.40;;;7.83;;
16577;SDS011;8401;52.528;13.340;2023-09-18T05:19:25;8.27;;;7.37;;
16577;SDS011;8401;52.528;13.340;2023-09-18T05:21:50;10.70;;;7.90;;
16577;SDS011;8401;52.528;13.340;2023-09-18T05:24:17;8.67;;;7.77;;
16577;SDS011;8401;52.528;13.340;2023-09-18T05:26:51;11.77;;;7.40;;
16577;SDS011;8401;52.528;13.340;2023-09-18T05:29:18;10.40;;;7.47;;
16577;SDS011;8401;52.528;13.340;2023-09-18T05:31:44;11.27;;;7.80;;
16577;SDS011;8401;52.528;13.340;2023-09-18T05:34:11;8.90;;;7.10;;
16577;SDS011;8401;52.528;13.340;2023-09-18T05:36:37;9.57;;;7.60;;
16577;SDS011;8401;52.528;13.340;2023-09-18T05:39:03;11.43;;;8.10;;
16577;SDS011;8401;52.528;13.340;2023-09-18T05:41:34;9.30;;;7.40;;
16577;SDS011;8401;52.528;13.340;2023-09-18T05:44:01;8.93;;;7.30;;
16577;SDS011;8401;52.528;13.340;2023-09-18T05:46:28;9.70;;;7.90;;
16577;SDS011;8401;52.528;13.340;2023-09-18T05:48:54;10.73;;;7.30;;
16577;SDS011;8401;52.528;13.340;2023-09-18T05:51:22;10.83;;;7.10;;
16577;SDS011;8401;52.528;13.340;2023-09-18T05:53:47;9.73;;;7.73;;
16577;SDS011;8401;52.528;13.340;2023-09-18T05:56:13;14.03;;;8.00;;
16577;SDS011;8401;52.528;13.340;2023-09-18T05:58:41;12.98;;;7.93;;
16577;SDS011;8401;52.528;13.340;2023-09-18T06:01:07;9.77;;;7.40;;
16577;SDS011;8401;52.528;13.340;2023-09-18T06:03:32;8.90;;;7.65;;
16577;SDS011;8401;52.528;13.340;2023-09-18T06:06:01;11.77;;;7.50;;
16577;SDS011;8401;52.528;13.340;2023-09-18T06:08:28;8.75;;;7.38;;
16577;SDS011;8401;52.528;13.340;2023-09-18T06:10:55;8.65;;;7.07;;
16577;SDS011;8401;52.528;13.340;2023-09-18T06:13:21;9.10;;;7.28;;
16577;SDS011;8401;52.528;13.340;2023-09-18T06:15:47;9.00;;;6.93;;
16577;SDS011;8401;52.528;13.340;2023-09-18T06:18:13;10.27;;;7.75;;
16577;SDS011;8401;52.528;13.340;2023-09-18T06:20:39;10.60;;;7.68;;
16577;SDS011;8401;52.528;13.340;2023-09-18T06:23:06;8.32;;;7.03;;
16577;SDS011;8401;52.528;13.340;2023-09-18T06:25:31;9.77;;;7.45;;
16577;SDS011;8401;52.528;13.340;2023-09-18T06:27:57;10.63;;;7.80;;
16577;SDS011;8401;52.528;13.340;2023-09-18T06:30:23;14.68;;;7.72;;
16577;SDS011;8401;52.528;13.340;2023-09-18T06:32:49;12.75;;;8.25;;
16577;SDS011;8401;52.528;13.340;2023-09-18T06:35:14;10.80;;;7.47;;
16577;SDS011;8401;52.528;13.340;2023-09-18T06:37:40;14.30;;;7.45;;
16577;SDS011;8401;52.528;13.340;2023-09-18T06:40:06;10.95;;;7.55;;
16577;SDS011;8401;52.528;13.340;2023-09-18T06:42:32;12.93;;;7.35;;
16577;SDS011;8401;52.528;13.340;2023-09-18T06:44:58;8.20;;;7.40;;
16577;SDS011;8401;52.528;13.340;2023-09-18T06:47:23;11.82;;;7.65;;
16577;SDS011;8401;52.528;13.340;2023-09-18T06:49:49;11.57;;;7.07;;
16577;SDS011;8401;52.528;13.340;2023-09-18T06:52:16;9.40;;;7.82;;
16577;SDS011;8401;52.528;13.340;2023-09-18T06:54:42;8.45;;;7.47;;
16577;SDS011;8401;52.528;13.340;2023-09-18T06:57:09;12.32;;;7.40;;
16577;SDS011;8401;52.528;13.340;2023-09-18T06:59:35;9.85;;;6.85;;
16577;SDS011;8401;52.528;13.340;2023-09-18T07:02:00;8.35;;;6.47;;
16577;SDS011;8401;52.528;13.340;2023-09-18T07:04:26;10.18;;;7.20;;
16577;SDS011;8401;52.528;13.340;2023-09-18T07:06:52;8.07;;;7.22;;
16577;SDS011;8401;52.528;13.340;2023-09-18T07:09:19;8.57;;;6.70;;
16577;SDS011;8401;52.528;13.340;2023-09-18T07:11:48;8.57;;;7.13;;
16577;SDS011;8401;52.528;13.340;2023-09-18T07:14:14;10.88;;;7.13;;
16577;SDS011;8401;52.528;13.340;2023-09-18T07:16:39;9.93;;;6.68;;
16577;SDS011;8401;52.528;13.340;2023-09-18T07:19:05;10.32;;;6.53;;
16577;SDS011;8401;52.528;13.340;2023-09-18T07:21:31;9.48;;;6.72;;
16577;SDS011;8401;52.528;13.340;2023-09-18T07:23:58;8.80;;;6.85;;
16577;SDS011;8401;52.528;13.340;2023-09-18T07:26:24;8.73;;;6.28;;
16577;SDS011;8401;52.528;13.340;2023-09-18T07:28:49;6.20;;;5.63;;
16577;SDS011;8401;52.528;13.340;2023-09-18T07:31:15;7.88;;;6.50;;
16577;SDS011;8401;52.528;13.340;2023-09-18T07:33:41;8.40;;;6.70;;
16577;SDS011;8401;52.528;13.340;2023-09-18T07:36:06;7.45;;;6.07;;
16577;SDS011;8401;52.528;13.340;2023-09-18T07:38:32;9.10;;;5.57;;
16577;SDS011;8401;52.528;13.340;2023-09-18T07:40:58;9.60;;;5.85;;
16577;SDS011;8401;52.528;13.340;2023-09-18T07:43:24;6.63;;;5.85;;
16577;SDS011;8401;52.528;13.340;2023-09-18T07:45:50;6.20;;;5.68;;
16577;SDS011;8401;52.528;13.340;2023-09-18T07:48:16;5.97;;;5.47;;
16577;SDS011;8401;52.528;13.340;2023-09-18T07:50:45;8.68;;;5.78;;
16577;SDS011;8401;52.528;13.340;2023-09-18T07:53:14;8.57;;;6.15;;
16577;SDS011;8401;52.528;13.340;2023-09-18T07:55:40;5.80;;;5.22;;
16577;SDS011;8401;52.528;13.340;2023-09-18T07:58:06;7.18;;;5.47;;
16577;SDS011;8401;52.528;13.340;2023-09-18T08:00:31;6.05;;;5.22;;
16577;SDS011;8401;52.528;13.340;2023-09-18T08:02:58;6.93;;;5.60;;
16577;SDS011;8401;52.528;13.340;2023-09-18T08:05:26;7.65;;;5.50;;
16577;SDS011;8401;52.528;13.340;2023-09-18T08:07:56;8.60;;;5.50;;
16577;SDS011;8401;52.528;13.340;2023-09-18T08:10:24;5.88;;;5.28;;
16577;SDS011;8401;52.528;13.340;2023-09-18T08:12:50;5.60;;;5.10;;
16577;SDS011;8401;52.528;13.340;2023-09-18T08:15:18;8.23;;;5.43;;
16577;SDS011;8401;52.528;13.340;2023-09-18T08:17:47;9.43;;;5.47;;
16577;SDS011;8401;52.528;13.340;2023-09-18T08:20:14;6.35;;;5.72;;
16577;SDS011;8401;52.528;13.340;2023-09-18T08:22:41;4.85;;;4.45;;
16577;SDS011;8401;52.528;13.340;2023-09-18T08:25:08;7.93;;;4.80;;
16577;SDS011;8401;52.528;13.340;2023-09-18T08:27:39;8.98;;;5.78;;
16577;SDS011;8401;52.528;13.340;2023-09-18T08:30:07;7.00;;;5.35;;
16577;SDS011;8401;52.528;13.340;2023-09-18T08:32:35;6.03;;;5.43;;
16577;SDS011;8401;52.528;13.340;2023-09-18T08:35:01;6.35;;;4.63;;
16577;SDS011;8401;52.528;13.340;2023-09-18T08:37:27;6.28;;;4.88;;
16577;SDS011;8401;52.528;13.340;2023-09-18T08:39:53;6.60;;;4.90;;
16577;SDS011;8401;52.528;13.340;2023-09-18T08:42:19;5.72;;;5.05;;
16577;SDS011;8401;52.528;13.340;2023-09-18T08:44:48;5.85;;;4.88;;
16577;SDS011;8401;52.528;13.340;2023-09-18T08:47:16;5.72;;;4.78;;
16577;SDS011;8401;52.528;13.340;2023-09-18T08:49:43;5.93;;;4.90;;
16577;SDS011;8401;52.528;13.340;2023-09-18T08:52:12;7.13;;;4.47;;
16577;SDS011;8401;52.528;13.340;2023-09-18T08:54:39;6.93;;;4.95;;
16577;SDS011;8401;52.528;13.340;2023-09-18T08:57:05;6.15;;;4.57;;
16577;SDS011;8401;52.528;13.340;2023-09-18T08:59:33;4.45;;;4.15;;
16577;SDS011;8401;52.528;13.340;2023-09-18T09:02:01;12.18;;;4.72;;
16577;SDS011;8401;52.528;13.340;2023-09-18T09:04:27;5.53;;;5.00;;
16577;SDS011;8401;52.528;13.340;2023-09-18T09:06:53;6.03;;;4.50;;
16577;SDS011;8401;52.528;13.340;2023-09-18T09:09:22;5.25;;;4.75;;
16577;SDS011;8401;52.528;13.340;2023-09-18T09:11:51;6.70;;;4.45;;
16577;SDS011;8401;52.528;13.340;2023-09-18T09:14:17;8.57;;;5.00;;
16577;SDS011;8401;52.528;13.340;2023-09-18T09:16:50;6.68;;;4.95;;
16577;SDS011;8401;52.528;13.340;2023-09-18T09:19:17;6.75;;;4.30;;
16577;SDS011;8401;52.528;13.340;2023-09-18T09:21:43;7.78;;;5.22;;
16577;SDS011;8401;52.528;13.340;2023-09-18T09:24:10;4.88;;;4.38;;
16577;SDS011;8401;52.528;13.340;2023-09-18T09:26:39;6.72;;;4.38;;
16577;SDS011;8401;52.528;13.340;2023-09-18T09:29:16;10.00;;;5.32;;
16577;SDS011;8401;52.528;13.340;2023-09-18T09:31:43;5.70;;;4.50;;
16577;SDS011;8401;52.528;13.340;2023-09-18T09:34:10;6.57;;;4.78;;
16577;SDS011;8401;52.528;13.340;2023-09-18T09:36:36;5.60;;;4.10;;
16577;SDS011;8401;52.528;13.340;2023-09-18T09:39:15;5.15;;;4.65;;
16577;SDS011;8401;52.528;13.340;2023-09-18T09:41:44;6.85;;;4.63;;
16577;SDS011;8401;52.528;13.340;2023-09-18T09:44:11;5.88;;;4.15;;
16577;SDS011;8401;52.528;13.340;2023-09-18T09:46:45;4.90;;;4.25;;
16577;SDS011;8401;52.528;13.340;2023-09-18T09:49:14;4.97;;;4.13;;
16577;SDS011;8401;52.528;13.340;2023-09-18T09:51:41;5.95;;;4.20;;
16577;SDS011;8401;52.528;13.340;2023-09-18T09:54:06;4.70;;;4.25;;
16577;SDS011;8401;52.528;13.340;2023-09-18T09:56:40;4.70;;;4.30;;
16577;SDS011;8401;52.528;13.340;2023-09-18T09:59:10;5.95;;;4.30;;
16577;SDS011;8401;52.528;13.340;2023-09-18T10:01:37;4.10;;;3.80;;
16577;SDS011;8401;52.528;13.340;2023-09-18T10:04:06;4.68;;;4.28;;
16577;SDS011;8401;52.528;13.340;2023-09-18T10:06:35;4.38;;;3.95;;
16577;SDS011;8401;52.528;13.340;2023-09-18T10:09:02;5.43;;;4.75;;
16577;SDS011;8401;52.528;13.340;2023-09-18T10:11:31;4.78;;;4.30;;
16577;SDS011;8401;52.528;13.340;2023-09-18T10:14:04;6.93;;;4.88;;
16577;SDS011;8401;52.528;13.340;2023-09-18T10:16:36;5.97;;;4.30;;
16577;SDS011;8401;52.528;13.340;2023-09-18T10:21:57;4.40;;;4.00;;
16577;SDS011;8401;52.528;13.340;2023-09-18T10:24:34;5.72;;;4.05;;
16577;SDS011;8401;52.528;13.340;2023-09-18T10:27:06;6.00;;;4.30;;
16577;SDS011;8401;52.528;13.340;2023-09-18T10:29:34;5.03;;;4.30;;
16577;SDS011;8401;52.528;13.340;2023-09-18T10:32:04;4.80;;;4.07;;
16577;SDS011;8401;52.528;13.340;2023-09-18T10:34:34;4.60;;;4.13;;
16577;SDS011;8401;52.528;13.340;2023-09-18T10:37:01;4.35;;;3.97;;
16577;SDS011;8401;52.528;13.340;2023-09-18T10:39:32;6.22;;;4.50;;
16577;SDS011;8401;52.528;13.340;2023-09-18T10:42:01;4.70;;;4.03;;
16577;SDS011;8401;52.528;13.340;2023-09-18T10:44:29;6.93;;;4.20;;
16577;SDS011;8401;52.528;13.340;2023-09-18T10:46:56;6.43;;;4.32;;
16577;SDS011;8401;52.528;13.340;2023-09-18T10:49:23;6.97;;;4.25;;
16577;SDS011;8401;52.528;13.340;2023-09-18T10:51:53;4.75;;;4.35;;
16577;SDS011;8401;52.528;13.340;2023-09-18T10:54:20;10.23;;;4.28;;
16577;SDS011;8401;52.528;13.340;2023-09-18T10:56:47;4.75;;;4.22;;
16577;SDS011;8401;52.528;13.340;2023-09-18T10:59:14;4.28;;;3.88;;
16577;SDS011;8401;52.528;13.340;2023-09-18T11:01:40;7.32;;;4.22;;
16577;SDS011;8401;52.528;13.340;2023-09-18T11:04:07;5.55;;;4.25;;
16577;SDS011;8401;52.528;13.340;2023-09-18T11:09:19;7.03;;;4.38;;
16577;SDS011;8401;52.528;13.340;2023-09-18T11:11:46;8.43;;;4.03;;
16577;SDS011;8401;52.528;13.340;2023-09-18T11:14:14;10.45;;;4.65;;
16577;SDS011;8401;52.528;13.340;2023-09-18T11:16:42;9.57;;;4.68;;
16577;SDS011;8401;52.528;13.340;2023-09-18T11:19:09;7.28;;;4.63;;
16577;SDS011;8401;52.528;13.340;2023-09-18T11:21:36;7.45;;;4.57;;
16577;SDS011;8401;52.528;13.340;2023-09-18T11:24:07;6.43;;;4.78;;
16577;SDS011;8401;52.528;13.340;2023-09-18T11:26:41;5.03;;;4.47;;
16577;SDS011;8401;52.528;13.340;2023-09-18T11:29:08;7.38;;;4.80;;
16577;SDS011;8401;52.528;13.340;2023-09-18T11:36:56;6.88;;;4.93;;
16577;SDS011;8401;52.528;13.340;2023-09-18T11:39:39;6.55;;;5.80;;
16577;SDS011;8401;52.528;13.340;2023-09-18T11:42:15;5.93;;;4.90;;
16577;SDS011;8401;52.528;13.340;2023-09-18T11:44:44;6.35;;;4.57;;
16577;SDS011;8401;52.528;13.340;2023-09-18T11:47:13;6.80;;;4.50;;
16577;SDS011;8401;52.528;13.340;2023-09-18T11:49:53;6.07;;;4.40;;
16577;SDS011;8401;52.528;13.340;2023-09-18T11:52:24;5.63;;;5.00;;
16577;SDS011;8401;52.528;13.340;2023-09-18T11:54:55;5.38;;;4.88;;
16577;SDS011;8401;52.528;13.340;2023-09-18T11:57:22;5.50;;;4.53;;
16577;SDS011;8401;52.528;13.340;2023-09-18T11:59:49;5.32;;;4.70;;
16577;SDS011;8401;52.528;13.340;2023-09-18T12:02:25;8.10;;;5.13;;
16577;SDS011;8401;52.528;13.340;2023-09-18T12:04:56;5.07;;;4.57;;
16577;SDS011;8401;52.528;13.340;2023-09-18T12:07:22;6.22;;;4.90;;
16577;SDS011;8401;52.528;13.340;2023-09-18T12:09:49;8.02;;;5.18;;
16577;SDS011;8401;52.528;13.340;2023-09-18T12:12:15;6.55;;;5.18;;
16577;SDS011;8401;52.528;13.340;2023-09-18T12:14:42;6.50;;;4.50;;
16577;SDS011;8401;52.528;13.340;2023-09-18T12:17:09;5.72;;;4.85;;
16577;SDS011;8401;52.528;13.340;2023-09-18T12:19:49;9.13;;;5.28;;
16577;SDS011;8401;52.528;13.340;2023-09-18T12:22:28;4.68;;;4.20;;
16577;SDS011;8401;52.528;13.340;2023-09-18T12:25:13;6.00;;;4.57;;
16577;SDS011;8401;52.528;13.340;2023-09-18T12:27:42;6.07;;;4.18;;
16577;SDS011;8401;52.528;13.340;2023-09-18T12:30:09;5.70;;;4.47;;
16577;SDS011;8401;52.528;13.340;2023-09-18T12:32:36;6.28;;;4.57;;
16577;SDS011;8401;52.528;13.340;2023-09-18T12:35:02;5.97;;;4.25;;
16577;SDS011;8401;52.528;13.340;2023-09-18T12:37:31;6.32;;;4.05;;
16577;SDS011;8401;52.528;13.340;2023-09-18T12:40:04;6.28;;;4.25;;
16577;SDS011;8401;52.528;13.340;2023-09-18T12:42:36;5.75;;;4.47;;
16577;SDS011;8401;52.528;13.340;2023-09-18T12:45:05;5.72;;;4.68;;
16577;SDS011;8401;52.528;13.340;2023-09-18T12:47:32;6.20;;;4.47;;
16577;SDS011;8401;52.528;13.340;2023-09-18T12:50:02;7.93;;;4.75;;
16577;SDS011;8401;52.528;13.340;2023-09-18T12:52:28;5.20;;;4.25;;
16577;SDS011;8401;52.528;13.340;2023-09-18T12:54:55;5.47;;;4.50;;
16577;SDS011;8401;52.528;13.340;2023-09-18T12:57:22;8.18;;;4.65;;
16577;SDS011;8401;52.528;13.340;2023-09-18T12:59:48;5.13;;;4.32;;
16577;SDS011;8401;52.528;13.340;2023-09-18T13:02:19;5.93;;;4.40;;
16577;SDS011;8401;52.528;13.340;2023-09-18T13:04:51;7.70;;;4.22;;
16577;SDS011;8401;52.528;13.340;2023-09-18T13:07:18;5.95;;;4.20;;
16577;SDS011;8401;52.528;13.340;2023-09-18T13:09:57;9.65;;;4.95;;
16577;SDS011;8401;52.528;13.340;2023-09-18T13:15:27;8.15;;;4.25;;
16577;SDS011;8401;52.528;13.340;2023-09-18T13:17:53;8.02;;;4.80;;
16577;SDS011;8401;52.528;13.340;2023-09-18T13:20:24;8.07;;;4.10;;
16577;SDS011;8401;52.528;13.340;2023-09-18T13:22:52;5.60;;;4.20;;
16577;SDS011;8401;52.528;13.340;2023-09-18T13:25:20;4.40;;;4.00;;
16577;SDS011;8401;52.528;13.340;2023-09-18T13:27:47;8.00;;;4.22;;
16577;SDS011;8401;52.528;13.340;2023-09-18T13:30:14;5.70;;;4.40;;
16577;SDS011;8401;52.528;13.340;2023-09-18T13:32:42;5.45;;;4.20;;
16577;SDS011;8401;52.528;13.340;2023-09-18T13:35:08;5.75;;;4.13;;
16577;SDS011;8401;52.528;13.340;2023-09-18T13:37:54;8.15;;;4.85;;
16577;SDS011;8401;52.528;13.340;2023-09-18T13:40:20;8.25;;;4.70;;
16577;SDS011;8401;52.528;13.340;2023-09-18T13:42:47;9.63;;;4.53;;
16577;SDS011;8401;52.528;13.340;2023-09-18T13:45:14;5.90;;;4.00;;
16577;SDS011;8401;52.528;13.340;2023-09-18T13:47:41;9.20;;;4.65;;
16577;SDS011;8401;52.528;13.340;2023-09-18T13:50:07;9.27;;;5.47;;
16577;SDS011;8401;52.528;13.340;2023-09-18T13:52:33;11.00;;;5.85;;
16577;SDS011;8401;52.528;13.340;2023-09-18T13:55:01;7.63;;;5.85;;
16577;SDS011;8401;52.528;13.340;2023-09-18T13:57:30;10.75;;;4.93;;
16577;SDS011;8401;52.528;13.340;2023-09-18T13:59:56;9.15;;;5.68;;
16577;SDS011;8401;52.528;13.340;2023-09-18T14:02:22;6.82;;;5.13;;
16577;SDS011;8401;52.528;13.340;2023-09-18T14:04:52;7.93;;;4.70;;
16577;SDS011;8401;52.528;13.340;2023-09-18T14:07:20;9.57;;;5.03;;
16577;SDS011;8401;52.528;13.340;2023-09-18T14:09:46;11.50;;;4.55;;
16577;SDS011;8401;52.528;13.340;2023-09-18T14:12:12;5.30;;;4.80;;
16577;SDS011;8401;52.528;13.340;2023-09-18T14:14:38;7.30;;;4.65;;
16577;SDS011;8401;52.528;13.340;2023-09-18T14:17:05;5.78;;;4.60;;
16577;SDS011;8401;52.528;13.340;2023-09-18T14:19:31;5.32;;;4.35;;
16577;SDS011;8401;52.528;13.340;2023-09-18T14:21:57;4.70;;;3.75;;
16577;SDS011;8401;52.528;13.340;2023-09-18T14:24:22;6.55;;;4.50;;
16577;SDS011;8401;52.528;13.340;2023-09-18T14:26:53;8.35;;;4.70;;
16577;SDS011;8401;52.528;13.340;2023-09-18T14:29:20;6.30;;;4.70;;
16577;SDS011;8401;52.528;13.340;2023-09-18T14:31:46;5.45;;;4.18;;
16577;SDS011;8401;52.528;13.340;2023-09-18T14:34:12;7.47;;;4.22;;
16577;SDS011;8401;52.528;13.340;2023-09-18T14:36:37;5.32;;;4.00;;
16577;SDS011;8401;52.528;13.340;2023-09-18T14:39:05;5.43;;;3.58;;
16577;SDS011;8401;52.528;13.340;2023-09-18T14:41:37;5.43;;;3.50;;
16577;SDS011;8401;52.528;13.340;2023-09-18T14:44:03;8.00;;;4.28;;
16577;SDS011;8401;52.528;13.340;2023-09-18T14:46:30;6.30;;;3.20;;
16577;SDS011;8401;52.528;13.340;2023-09-18T14:48:58;8.23;;;2.78;;
16577;SDS011;8401;52.528;13.340;2023-09-18T14:51:25;4.72;;;2.92;;
16577;SDS011;8401;52.528;13.340;2023-09-18T14:53:50;6.20;;;3.50;;
16577;SDS011;8401;52.528;13.340;2023-09-18T14:56:16;6.82;;;3.78;;
16577;SDS011;8401;52.528;13.340;2023-09-18T14:58:42;7.63;;;3.58;;
16577;SDS011;8401;52.528;13.340;2023-09-18T15:01:08;6.97;;;3.00;;
16577;SDS011;8401;52.528;13.340;2023-09-18T15:03:35;4.45;;;2.80;;